Time;durP1;ratioP1;P1;durP2;ratioP2;P2;SDS_P1;SDS_P2;PMS_P1;PMS_P2;Temp;Humidity;BMP_temperature;BMP_pressure;BME280_temperature;BME280_humidity;BME280_pressure;Samples;Min_cycle;Max_cycle;Signal;HPM_P1;HPM_P2
2021/10/06 00:01:45;;;;;;;18.50;10.57;;;;;;;6.91;70.91;101294.02;1804142;77;20957;-55
2021/10/06 00:04:11;;;;;;;15.43;10.43;;;;;;;6.87;70.93;101299.43;1801955;77;21019;-54
2021/10/06 00:06:38;;;;;;;19.53;10.07;;;;;;;6.82;71.00;101300.34;1803005;78;21680;-54
2021/10/06 00:09:06;;;;;;;14.37;9.07;;;;;;;6.79;71.07;101297.72;1802273;78;21048;-54
2021/10/06 00:11:33;;;;;;;13.63;8.43;;;;;;;6.77;71.13;101302.19;1805515;78;22300;-54
2021/10/06 00:13:59;;;;;;;18.37;8.07;;;;;;;6.76;71.23;101299.06;1800680;77;21393;-54
2021/10/06 00:16:25;;;;;;;12.23;8.27;;;;;;;6.75;71.30;101295.05;1800207;78;20929;-54
2021/10/06 00:18:52;;;;;;;12.47;8.10;;;;;;;6.74;71.35;101294.16;1804088;77;21724;-54
2021/10/06 00:21:18;;;;;;;11.33;8.40;;;;;;;6.75;71.41;101297.73;1805275;77;21610;-55
2021/10/06 00:23:44;;;;;;;15.80;9.83;;;;;;;6.74;71.47;101294.16;1804180;77;21114;-54
2021/10/06 00:26:11;;;;;;;15.20;9.60;;;;;;;6.73;71.48;101296.41;1805053;78;21005;-54
2021/10/06 00:28:37;;;;;;;17.53;9.97;;;;;;;6.71;71.51;101290.20;1809256;77;21028;-54
2021/10/06 00:31:03;;;;;;;18.13;10.67;;;;;;;6.70;71.56;101295.11;1807130;77;21096;-55
2021/10/06 00:33:30;;;;;;;17.07;10.90;;;;;;;6.67;71.61;101290.22;1809147;77;20878;-54
2021/10/06 00:35:56;;;;;;;12.77;9.70;;;;;;;6.64;71.66;101296.92;1807704;78;21120;-53
2021/10/06 00:38:24;;;;;;;18.63;11.07;;;;;;;6.60;71.73;101297.41;1808543;77;21049;-53
2021/10/06 00:40:50;;;;;;;16.00;9.50;;;;;;;6.57;71.79;101300.10;1805050;77;21092;-54
2021/10/06 00:43:17;;;;;;;10.93;8.40;;;;;;;6.54;71.84;101306.83;1807469;78;20957;-55
2021/10/06 00:45:43;;;;;;;12.97;7.93;;;;;;;6.53;71.90;101303.72;1805945;78;21032;-54
2021/10/06 00:48:10;;;;;;;9.83;7.10;;;;;;;6.52;72.01;101310.41;1805038;77;21129;-53
2021/10/06 00:50:36;;;;;;;13.80;7.87;;;;;;;6.51;72.07;101309.52;1805448;77;21127;-54
2021/10/06 00:53:06;;;;;;;14.20;8.00;;;;;;;6.51;72.17;101306.84;1804490;77;21033;-54
2021/10/06 00:55:36;;;;;;;12.97;8.87;;;;;;;6.52;72.22;101308.63;1805104;77;21076;-53
2021/10/06 00:58:03;;;;;;;16.87;10.30;;;;;;;6.54;72.34;101309.95;1803779;77;22834;-54
2021/10/06 01:00:30;;;;;;;16.27;10.70;;;;;;;6.54;72.35;101306.83;1803184;77;22237;-54
2021/10/06 01:02:56;;;;;;;17.47;9.77;;;;;;;6.54;72.33;101304.16;1802713;78;22331;-54
2021/10/06 01:05:23;;;;;;;13.50;9.40;;;;;;;6.51;72.36;101305.50;1806639;78;21519;-53
2021/10/06 01:07:49;;;;;;;12.00;9.60;;;;;;;6.48;72.43;101299.27;1807119;77;22197;-53
2021/10/06 01:10:15;;;;;;;13.90;9.13;;;;;;;6.43;72.49;101302.00;1804820;77;21687;-54
2021/10/06 01:12:42;;;;;;;13.40;8.17;;;;;;;6.40;72.62;101300.67;1802827;78;21505;-54
2021/10/06 01:15:11;;;;;;;9.83;7.30;;;;;;;6.39;72.73;101302.45;1806491;77;21535;-54
2021/10/06 01:17:39;;;;;;;12.70;8.20;;;;;;;6.39;72.84;101304.23;1761739;79;20925;-54
2021/10/06 01:20:07;;;;;;;13.73;6.53;;;;;;;6.40;72.90;101302.00;1758931;80;20897;-54
2021/10/06 01:22:33;;;;;;;7.83;5.87;;;;;;;6.43;72.91;101307.34;1759287;81;21647;-54
2021/10/06 01:25:01;;;;;;;14.20;7.47;;;;;;;6.44;72.92;101303.78;1762612;79;21129;-55
2021/10/06 01:27:27;;;;;;;13.47;7.87;;;;;;;6.45;73.03;101306.45;1758282;81;21478;-55
2021/10/06 01:29:54;;;;;;;13.53;8.70;;;;;;;6.45;73.04;101298.88;1756903;80;21415;-55
2021/10/06 01:32:20;;;;;;;13.87;7.63;;;;;;;6.43;73.02;101300.21;1753170;79;21453;-53
2021/10/06 01:34:58;;;;;;;17.83;9.47;;;;;;;6.41;73.03;101302.00;1759738;79;21435;-54
2021/10/06 01:37:30;;;;;;;12.93;7.83;;;;;;;6.38;73.09;101305.16;1757879;80;21097;-54
2021/10/06 01:40:00;;;;;;;11.08;7.50;;;;;;;6.33;73.19;101302.50;1758600;79;20945;-54
2021/10/06 01:42:26;;;;;;;12.40;7.40;;;;;;;6.28;73.30;101304.78;1758930;79;20913;-54
2021/10/06 01:44:53;;;;;;;8.27;5.47;;;;;;;6.25;73.45;101298.09;1752534;79;21039;-54
2021/10/06 01:47:20;;;;;;;7.50;5.87;;;;;;;6.25;73.58;101304.78;1754215;81;21419;-54
2021/10/06 01:49:47;;;;;;;9.63;5.70;;;;;;;6.26;73.69;101314.14;1753300;79;21177;-54
2021/10/06 01:52:18;;;;;;;9.33;6.43;;;;;;;6.29;73.73;101308.78;1755469;79;21051;-54
2021/10/06 01:54:44;;;;;;;7.70;5.70;;;;;;;6.32;73.72;101306.52;1754203;80;21323;-54
2021/10/06 01:57:11;;;;;;;10.03;6.93;;;;;;;6.32;73.68;101310.53;1754884;79;21028;-54
2021/10/06 01:59:37;;;;;;;11.23;7.53;;;;;;;6.32;73.70;101311.42;1762497;79;21365;-54
2021/10/06 02:02:03;;;;;;;11.37;8.37;;;;;;;6.33;73.67;101315.88;1756235;79;22001;-53
2021/10/06 02:04:30;;;;;;;14.77;7.40;;;;;;;6.30;73.61;101310.53;1753745;79;21008;-54
2021/10/06 02:06:56;;;;;;;10.27;6.50;;;;;;;6.27;73.66;101313.25;1753516;79;21492;-54
2021/10/06 02:09:22;;;;;;;9.10;7.10;;;;;;;6.25;73.67;101312.80;1717572;83;21406;-54
2021/10/06 02:11:50;;;;;;;9.80;5.93;;;;;;;6.22;73.70;101313.70;1688445;83;21435;-54
2021/10/06 02:14:17;;;;;;;8.73;5.37;;;;;;;6.21;73.79;101316.41;1715506;81;21444;-54
2021/10/06 02:16:45;;;;;;;7.83;4.80;;;;;;;6.21;73.85;101321.28;1742021;79;21089;-54
2021/10/06 02:19:11;;;;;;;6.97;4.33;;;;;;;6.23;73.87;101321.28;1763609;79;21073;-54
2021/10/06 02:21:37;;;;;;;7.20;5.03;;;;;;;6.23;73.93;101318.16;1763417;79;21370;-54
2021/10/06 02:24:04;;;;;;;8.10;6.07;;;;;;;6.26;73.86;101319.94;1767660;79;20966;-54
2021/10/06 02:26:32;;;;;;;11.03;6.87;;;;;;;6.25;73.92;101324.84;1765994;79;21158;-54
2021/10/06 02:28:58;;;;;;;11.10;6.87;;;;;;;6.24;73.89;101333.75;1765140;79;21398;-54
2021/10/06 02:31:24;;;;;;;10.27;5.70;;;;;;;6.22;73.94;101336.88;1768640;79;20954;-53
2021/10/06 02:33:51;;;;;;;12.00;6.53;;;;;;;6.16;74.00;101339.59;1731774;81;21145;-54
2021/10/06 02:36:17;;;;;;;8.00;4.87;;;;;;;6.10;74.06;101331.17;1763274;79;21089;-54
2021/10/06 02:38:43;;;;;;;7.90;4.97;;;;;;;6.10;74.17;101330.28;1732482;81;21049;-54
2021/10/06 02:41:09;;;;;;;10.17;5.57;;;;;;;6.06;74.24;101333.39;1730103;81;21054;-54
2021/10/06 02:43:37;;;;;;;9.03;5.10;;;;;;;6.05;74.30;101328.50;1728074;81;21129;-54
2021/10/06 02:46:03;;;;;;;7.10;4.83;;;;;;;6.07;74.43;101329.83;1731891;81;21127;-54
2021/10/06 02:48:29;;;;;;;8.47;4.23;;;;;;;6.12;74.45;101339.19;1801052;77;21075;-54
2021/10/06 02:50:56;;;;;;;7.00;4.57;;;;;;;6.14;74.47;101339.59;1802820;77;22701;-54
2021/10/06 02:53:22;;;;;;;10.50;5.63;;;;;;;6.15;74.47;101335.14;1803957;77;21341;-54
2021/10/06 02:55:49;;;;;;;6.60;5.67;;;;;;;6.14;74.46;101345.39;1805595;77;21661;-54
2021/10/06 02:58:15;;;;;;;10.77;6.57;;;;;;;6.12;74.49;101347.20;1801640;77;21563;-54
2021/10/06 03:00:41;;;;;;;6.60;5.57;;;;;;;6.08;74.55;101347.20;1799215;77;21108;-54
2021/10/06 03:03:08;;;;;;;8.10;4.77;;;;;;;6.04;74.60;101349.44;1797598;77;21042;-54
2021/10/06 03:05:35;;;;;;;6.33;4.47;;;;;;;6.02;74.71;101352.59;1803768;77;21001;-54
2021/10/06 03:08:01;;;;;;;6.07;4.50;;;;;;;6.00;74.82;101351.70;1802694;77;21068;-54
2021/10/06 03:10:27;;;;;;;3.63;3.23;;;;;;;6.00;74.92;101365.52;1801429;78;21055;-55
2021/10/06 03:12:54;;;;;;;7.70;4.03;;;;;;;6.02;74.99;101369.08;1803513;77;21330;-54
2021/10/06 03:15:20;;;;;;;10.57;5.10;;;;;;;6.03;74.97;101361.05;1802457;78;22397;-53
2021/10/06 03:17:46;;;;;;;7.67;5.60;;;;;;;6.06;74.94;101362.80;1799885;77;21697;-54
2021/10/06 03:20:13;;;;;;;6.30;5.17;;;;;;;6.05;74.94;101369.04;1804497;77;21147;-54
2021/10/06 03:22:39;;;;;;;8.90;6.47;;;;;;;6.04;74.88;101380.17;1807965;77;21014;-54
2021/10/06 03:25:06;;;;;;;7.23;5.80;;;;;;;6.02;74.88;101375.31;1801950;77;21060;-54
2021/10/06 03:27:33;;;;;;;8.40;4.73;;;;;;;5.98;74.94;101373.53;1803443;77;21065;-54
2021/10/06 03:29:59;;;;;;;7.00;4.33;;;;;;;5.95;75.00;101377.58;1800508;78;21096;-54
2021/10/06 03:32:25;;;;;;;13.37;4.10;;;;;;;5.94;75.05;101374.45;1800264;77;21028;-53
2021/10/06 03:34:52;;;;;;;10.50;4.00;;;;;;;5.94;75.19;101374.90;1801121;77;21093;-54
2021/10/06 03:37:19;;;;;;;6.43;3.63;;;;;;;5.95;75.24;101372.67;1802152;77;21037;-54
2021/10/06 03:39:46;;;;;;;10.23;4.53;;;;;;;5.98;75.33;101382.89;1803442;77;23008;-54
2021/10/06 03:42:12;;;;;;;6.97;5.17;;;;;;;6.01;75.35;101375.31;1799214;77;21037;-53
2021/10/06 03:44:38;;;;;;;7.57;5.33;;;;;;;6.02;75.33;101379.33;1802303;77;21332;-54
2021/10/06 03:47:04;;;;;;;6.33;5.30;;;;;;;6.03;75.33;101379.77;1803068;78;21528;-54
2021/10/06 03:49:31;;;;;;;9.13;5.90;;;;;;;6.00;75.32;101374.87;1801949;77;21041;-54
2021/10/06 03:51:57;;;;;;;10.90;6.97;;;;;;;5.96;75.36;101381.99;1801535;77;21035;-54
2021/10/06 03:54:23;;;;;;;6.90;5.33;;;;;;;5.93;75.34;101379.80;1804210;77;21104;-54
2021/10/06 03:56:50;;;;;;;7.43;5.43;;;;;;;5.90;75.39;101378.46;1807407;77;21021;-54
2021/10/06 03:59:17;;;;;;;9.87;4.67;;;;;;;5.86;75.45;101386.03;1802620;78;21104;-54
2021/10/06 04:01:43;;;;;;;9.20;4.17;;;;;;;5.84;75.48;101380.69;1803916;77;21045;-54
2021/10/06 04:04:09;;;;;;;6.47;4.07;;;;;;;5.84;75.49;101386.48;1801466;78;21119;-54
2021/10/06 04:06:36;;;;;;;9.43;4.33;;;;;;;5.83;75.51;101386.92;1805072;77;21030;-54
2021/10/06 04:09:02;;;;;;;16.27;4.87;;;;;;;5.82;75.49;101382.47;1806213;78;20898;-54
2021/10/06 04:11:31;;;;;;;12.53;5.20;;;;;;;5.84;75.56;101380.69;1807283;77;20922;-54
2021/10/06 04:13:57;;;;;;;7.10;5.73;;;;;;;5.85;75.65;101386.92;1805598;77;21481;-54
2021/10/06 04:16:24;;;;;;;10.07;5.73;;;;;;;5.83;75.68;101391.38;1808416;78;21349;-55
2021/10/06 04:18:50;;;;;;;7.13;5.17;;;;;;;5.79;75.64;101394.48;1806826;77;20851;-55
2021/10/06 04:21:17;;;;;;;18.83;4.83;;;;;;;5.77;75.71;101399.41;1768885;79;20864;-54
2021/10/06 04:23:43;;;;;;;12.90;5.13;;;;;;;5.75;75.82;101394.52;1731680;81;20990;-55
2021/10/06 04:26:09;;;;;;;7.83;3.67;;;;;;;5.73;75.95;101398.52;1752164;80;20985;-54
2021/10/06 04:28:35;;;;;;;11.27;4.53;;;;;;;5.73;76.05;101398.52;1754328;80;22128;-54
2021/10/06 04:31:02;;;;;;;5.10;3.50;;;;;;;5.75;76.11;101394.07;1804652;77;21374;-54
2021/10/06 04:33:30;;;;;;;5.47;4.33;;;;;;;5.79;76.21;101397.60;1804509;78;20902;-55
2021/10/06 04:35:56;;;;;;;6.37;5.10;;;;;;;5.83;76.29;101398.05;1807580;77;21384;-54
2021/10/06 04:38:22;;;;;;;6.93;4.77;;;;;;;5.86;76.33;101400.73;1808541;77;20866;-54
2021/10/06 04:40:49;;;;;;;9.83;5.47;;;;;;;5.86;76.34;101396.28;1804929;77;21088;-54
2021/10/06 04:43:15;;;;;;;9.33;5.40;;;;;;;5.87;76.40;101407.38;1808028;78;20891;-54
2021/10/06 04:45:41;;;;;;;9.90;5.07;;;;;;;5.86;76.44;101412.31;1807605;78;20902;-54
2021/10/06 04:48:08;;;;;;;8.37;4.43;;;;;;;5.85;76.54;101413.64;1801511;78;21053;-54
2021/10/06 04:50:34;;;;;;;7.17;3.50;;;;;;;5.84;76.65;101416.76;1802003;77;21092;-54
2021/10/06 04:53:03;;;;;;;17.10;3.90;;;;;;;5.84;76.82;101413.20;1807734;78;21149;-54
2021/10/06 04:55:31;;;;;;;4.90;2.90;;;;;;;5.85;76.92;101419.87;1777890;78;22402;-54
2021/10/06 04:57:58;;;;;;;4.83;2.97;;;;;;;5.92;77.04;101416.77;1804086;78;21419;-54
2021/10/06 05:00:26;;;;;;;5.53;3.33;;;;;;;5.98;77.03;101414.07;1805139;77;20933;-54
2021/10/06 05:02:52;;;;;;;7.00;3.17;;;;;;;6.05;77.11;101418.05;1809192;78;20953;-54
2021/10/06 05:05:18;;;;;;;7.73;4.60;;;;;;;6.13;77.07;101418.47;1807758;78;21076;-54
2021/10/06 05:07:45;;;;;;;11.70;4.67;;;;;;;6.20;77.05;101418.91;1804122;78;21101;-54
2021/10/06 05:10:12;;;;;;;14.50;4.83;;;;;;;6.26;77.07;101427.79;1808342;77;20997;-55
2021/10/06 05:12:38;;;;;;;7.70;4.40;;;;;;;6.35;77.05;101425.52;1803615;78;21743;-55
2021/10/06 05:15:06;;;;;;;3.13;2.70;;;;;;;6.44;76.97;101425.48;1802093;78;21016;-55
2021/10/06 05:17:32;;;;;;;7.30;3.17;;;;;;;6.56;76.87;101426.73;1803221;77;21082;-54
2021/10/06 05:19:59;;;;;;;6.00;3.53;;;;;;;6.69;76.77;101420.88;1799276;77;21092;-55
2021/10/06 05:22:25;;;;;;;7.90;3.37;;;;;;;6.84;76.55;101423.46;1807092;77;21070;-54
2021/10/06 05:24:51;;;;;;;6.13;3.30;;;;;;;6.95;76.28;101434.10;1802261;77;21029;-54
2021/10/06 05:27:18;;;;;;;5.10;4.30;;;;;;;7.04;76.05;101431.36;1801737;77;21606;-54
2021/10/06 05:29:44;;;;;;;9.63;4.00;;;;;;;7.13;75.87;101436.20;1802252;77;21759;-54
2021/10/06 05:32:10;;;;;;;9.20;3.93;;;;;;;7.21;75.74;101441.50;1800690;77;22486;-54
2021/10/06 05:34:37;;;;;;;12.57;3.90;;;;;;;7.31;75.64;101439.64;1804042;77;21052;-55
2021/10/06 05:37:03;;;;;;;5.20;2.90;;;;;;;7.41;75.43;101435.95;1804088;77;21040;-55
2021/10/06 05:39:29;;;;;;;6.13;3.13;;;;;;;7.51;75.25;101431.84;1797070;77;21076;-54
2021/10/06 05:41:56;;;;;;;5.57;2.63;;;;;;;7.61;75.10;101431.31;1803132;77;21076;-53
2021/10/06 05:44:22;;;;;;;7.73;3.60;;;;;;;7.71;74.96;101433.46;1803299;77;21013;-54
2021/10/06 05:46:48;;;;;;;6.67;3.67;;;;;;;7.79;74.79;101428.46;1803252;77;21104;-54
2021/10/06 05:49:14;;;;;;;4.17;3.73;;;;;;;7.84;74.68;101429.73;1802637;77;21013;-54
2021/10/06 05:51:42;;;;;;;4.53;4.03;;;;;;;7.93;74.62;101429.64;1801912;77;21017;-55
2021/10/06 05:54:08;;;;;;;5.37;3.83;;;;;;;8.01;74.44;101425.08;1804305;77;23111;-54
2021/10/06 05:56:35;;;;;;;8.70;4.03;;;;;;;8.02;74.25;101420.61;1805372;77;21049;-55
2021/10/06 05:59:02;;;;;;;5.27;4.67;;;;;;;7.99;74.18;101420.21;1804121;77;21012;-55
2021/10/06 06:01:28;;;;;;;4.87;3.70;;;;;;;7.96;74.22;101425.14;1802806;77;21045;-54
2021/10/06 06:03:54;;;;;;;6.87;3.23;;;;;;;7.96;74.33;101425.14;1803566;77;21080;-54
2021/10/06 06:06:22;;;;;;;10.20;3.43;;;;;;;7.98;74.50;101435.86;1807531;77;21168;-54
2021/10/06 06:08:49;;;;;;;9.53;3.30;;;;;;;8.04;74.60;101429.08;1803224;77;21028;-55
2021/10/06 06:11:15;;;;;;;3.53;3.23;;;;;;;8.16;74.69;101434.31;1804182;77;21513;-54
2021/10/06 06:13:41;;;;;;;6.20;3.77;;;;;;;8.30;74.67;101429.66;1801788;77;21093;-55
2021/10/06 06:16:08;;;;;;;3.37;2.75;;;;;;;8.43;74.64;101430.41;1795432;77;21116;-55
2021/10/06 06:18:34;;;;;;;7.08;3.55;;;;;;;8.56;74.46;101429.81;1804873;77;21262;-56
2021/10/06 06:21:01;;;;;;;5.85;4.87;;;;;;;8.65;74.37;101433.72;1807803;77;21057;-55
2021/10/06 06:23:28;;;;;;;5.62;4.00;;;;;;;8.75;74.23;101430.00;1804795;77;21503;-55
2021/10/06 06:25:55;;;;;;;4.37;3.10;;;;;;;8.84;74.22;101435.70;1806398;77;21321;-55
2021/10/06 06:28:23;;;;;;;4.17;3.12;;;;;;;8.95;74.08;101432.38;1776409;78;21626;-55
2021/10/06 06:30:50;;;;;;;5.67;2.33;;;;;;;9.03;73.86;101438.06;1804714;77;21105;-55
2021/10/06 06:33:16;;;;;;;3.40;3.00;;;;;;;9.14;73.64;101435.67;1802257;77;21124;-55
2021/10/06 06:35:42;;;;;;;5.85;3.12;;;;;;;9.24;73.58;101431.94;1803457;78;21045;-55
2021/10/06 06:38:08;;;;;;;11.35;4.75;;;;;;;9.33;73.36;101433.13;1805209;77;21037;-56
2021/10/06 06:40:35;;;;;;;6.15;4.15;;;;;;;9.44;73.25;101429.81;1806356;77;20976;-55
2021/10/06 06:43:01;;;;;;;5.53;4.47;;;;;;;9.52;73.02;101431.91;1807540;77;22451;-55
2021/10/06 06:45:28;;;;;;;4.42;2.95;;;;;;;9.58;72.79;101426.42;1804319;78;21512;-55
2021/10/06 06:47:54;;;;;;;7.62;3.47;;;;;;;9.63;72.60;101424.98;1802878;77;22580;-55
2021/10/06 06:50:20;;;;;;;9.10;3.52;;;;;;;9.69;72.47;101428.47;1809956;77;21067;-56
2021/10/06 06:52:47;;;;;;;3.42;3.02;;;;;;;9.75;72.40;101424.77;1805725;77;21075;-55
2021/10/06 06:55:13;;;;;;;6.55;3.25;;;;;;;9.82;72.31;101428.66;1806032;78;21100;-55
2021/10/06 06:57:39;;;;;;;6.42;3.87;;;;;;;9.90;72.13;101420.90;1803815;78;21079;-54
2021/10/06 07:00:06;;;;;;;4.28;3.83;;;;;;;10.00;71.94;101426.53;1806275;77;21033;-55
2021/10/06 07:02:33;;;;;;;8.90;4.17;;;;;;;10.06;71.79;101426.41;1806064;78;21378;-55
2021/10/06 07:05:00;;;;;;;6.80;2.92;;;;;;;10.12;71.67;101424.97;1804456;78;20922;-55
2021/10/06 07:07:27;;;;;;;6.22;3.90;;;;;;;10.19;71.49;101430.68;1810396;78;21077;-56
2021/10/06 07:09:53;;;;;;;4.70;3.10;;;;;;;10.28;71.27;101433.19;1810968;77;20925;-56
2021/10/06 07:12:20;;;;;;;5.17;2.98;;;;;;;10.37;71.08;101425.38;1808974;78;20945;-55
2021/10/06 07:14:47;;;;;;;5.65;3.30;;;;;;;10.46;71.00;101420.66;1808557;77;20902;-55
2021/10/06 07:17:14;;;;;;;3.87;3.20;;;;;;;10.56;70.63;101422.25;1810338;77;20953;-56
2021/10/06 07:19:40;;;;;;;6.67;3.17;;;;;;;10.66;70.61;101423.39;1808069;77;21053;-55
2021/10/06 07:22:07;;;;;;;3.98;3.20;;;;;;;10.74;70.09;101426.80;1807431;77;20961;-55
2021/10/06 07:24:33;;;;;;;5.65;3.27;;;;;;;10.80;69.87;101426.69;1806239;78;20941;-54
2021/10/06 07:27:00;;;;;;;6.12;3.17;;;;;;;10.88;69.62;101428.28;1809593;77;21262;-55
2021/10/06 07:29:26;;;;;;;5.67;2.67;;;;;;;10.94;69.10;101421.86;1807166;78;22055;-55
2021/10/06 07:31:53;;;;;;;3.27;2.35;;;;;;;10.99;68.75;101423.51;1808392;77;21374;-55
2021/10/06 07:34:19;;;;;;;3.58;2.47;;;;;;;11.07;68.41;101417.94;1809897;77;20875;-56
2021/10/06 07:36:45;;;;;;;6.70;3.08;;;;;;;11.15;68.23;101415.05;1806840;78;20930;-55
2021/10/06 07:39:12;;;;;;;5.80;3.02;;;;;;;11.24;67.71;101410.33;1806419;77;20926;-55
2021/10/06 07:41:38;;;;;;;3.95;2.70;;;;;;;11.31;67.56;101414.64;1805965;77;20964;-55
2021/10/06 07:44:05;;;;;;;10.70;3.58;;;;;;;11.42;67.32;101413.48;1806161;78;21058;-55
2021/10/06 07:46:31;;;;;;;6.62;3.15;;;;;;;11.52;67.30;101413.68;1801701;77;21954;-55
2021/10/06 07:48:58;;;;;;;5.47;3.47;;;;;;;11.62;67.07;101412.52;1805278;78;21503;-55
2021/10/06 07:51:24;;;;;;;2.98;2.72;;;;;;;11.72;66.65;101416.30;1802788;78;22395;-55
2021/10/06 07:53:50;;;;;;;4.35;3.17;;;;;;;11.78;66.14;101407.17;1807549;78;21079;-55
2021/10/06 07:56:18;;;;;;;12.25;4.45;;;;;;;11.85;65.70;101407.42;1796920;78;21061;-55
2021/10/06 07:58:44;;;;;;;9.18;3.15;;;;;;;11.92;65.38;101410.83;1806466;77;20914;-56
2021/10/06 08:01:10;;;;;;;13.22;2.85;;;;;;;11.98;65.34;101408.88;1805167;77;21040;-55
2021/10/06 08:03:37;;;;;;;6.67;2.42;;;;;;;12.07;64.64;101414.48;1801299;77;21052;-56
2021/10/06 08:06:03;;;;;;;6.37;2.60;;;;;;;12.11;64.23;101405.35;1803672;78;21715;-57
2021/10/06 08:08:30;;;;;;;3.98;2.10;;;;;;;12.18;63.88;101402.89;1804744;78;21098;-55
2021/10/06 08:10:59;;;;;;;3.35;2.62;;;;;;;12.27;63.79;101408.03;1802472;78;21096;-56
2021/10/06 08:13:25;;;;;;;6.25;1.98;;;;;;;12.35;63.17;101400.59;1807719;78;21097;-55
2021/10/06 08:15:52;;;;;;;7.05;2.87;;;;;;;12.45;63.17;101404.79;1800418;77;21053;-56
2021/10/06 08:18:19;;;;;;;5.67;1.87;;;;;;;12.54;62.76;101395.98;1800995;77;21068;-56
2021/10/06 08:20:47;;;;;;;6.95;2.25;;;;;;;12.59;62.26;101401.66;1803268;78;21114;-55
2021/10/06 08:23:17;;;;;;;5.65;2.37;;;;;;;12.64;61.89;101394.78;1803834;78;21037;-57
2021/10/06 08:25:45;;;;;;;1.62;1.52;;;;;;;12.68;61.55;101394.62;1804112;77;21088;-57
2021/10/06 08:28:12;;;;;;;16.57;3.08;;;;;;;12.70;60.97;101389.19;1803574;78;21342;-56
2021/10/06 08:30:38;;;;;;;4.25;1.65;;;;;;;12.72;60.96;101383.27;1804347;78;21177;-55
2021/10/06 08:33:06;;;;;;;11.08;2.58;;;;;;;12.77;61.08;101380.84;1806395;77;23293;-55
2021/10/06 08:35:33;;;;;;;2.62;1.70;;;;;;;12.82;61.25;101387.00;1801849;78;20979;-55
2021/10/06 08:38:03;;;;;;;3.83;1.65;;;;;;;12.84;60.96;101382.41;1802988;78;20997;-55
2021/10/06 08:40:31;;;;;;;3.22;1.27;;;;;;;12.85;60.79;101387.34;1801854;78;21084;-55
2021/10/06 08:42:57;;;;;;;3.95;1.45;;;;;;;12.89;60.63;101390.38;1802969;77;21339;-56
2021/10/06 08:45:23;;;;;;;9.48;1.65;;;;;;;12.94;59.90;101392.45;1714287;81;21490;-56
2021/10/06 08:47:49;;;;;;;4.45;1.15;;;;;;;13.02;60.03;101389.51;1804949;77;21528;-57
2021/10/06 08:50:17;;;;;;;4.03;1.82;;;;;;;13.09;59.39;101384.34;1800922;78;21046;-55
2021/10/06 08:52:47;;;;;;;3.05;1.30;;;;;;;13.16;59.12;101391.34;1805450;78;21266;-55
2021/10/06 08:55:13;;;;;;;10.32;1.70;;;;;;;13.21;57.73;101381.25;1805743;78;20906;-56
2021/10/06 08:57:39;;;;;;;4.58;1.12;;;;;;;13.25;56.28;101379.77;1806035;77;21931;-55
2021/10/06 09:00:07;;;;;;;7.40;1.05;;;;;;;13.33;55.59;101384.02;1804473;77;20898;-55
2021/10/06 09:02:38;;;;;;;1.72;1.10;;;;;;;13.35;54.08;101378.98;1803568;78;21037;-55
2021/10/06 09:05:06;;;;;;;3.62;0.95;;;;;;;13.40;53.29;101377.00;1801706;77;21147;-55
2021/10/06 09:07:54;;;;;;;2.40;1.17;;;;;;;13.45;53.25;101382.23;1803290;78;21052;-56
2021/10/06 09:10:21;;;;;;;2.17;1.00;;;;;;;13.50;52.67;101376.22;1805428;77;21086;-56
2021/10/06 09:13:05;;;;;;;1.20;1.10;;;;;;;13.54;52.18;101373.34;1802946;77;22093;-56
2021/10/06 09:15:49;;;;;;;2.25;1.17;;;;;;;13.55;51.91;101378.28;1803760;78;21037;-55
2021/10/06 09:18:20;;;;;;;4.78;1.02;;;;;;;13.55;51.39;101361.59;1800002;77;21096;-55
2021/10/06 09:20:47;;;;;;;1.87;1.62;;;;;;;13.51;52.24;101357.70;1804826;77;21071;-55
2021/10/06 09:23:17;;;;;;;4.78;1.10;;;;;;;13.54;52.51;101363.88;1805969;78;21112;-55
2021/10/06 09:25:59;;;;;;;4.42;1.50;;;;;;;13.52;52.55;101367.59;1808203;77;21332;-56
2021/10/06 09:28:43;;;;;;;3.70;1.25;;;;;;;13.51;52.22;101369.41;1804616;77;21083;-55
2021/10/06 09:31:26;;;;;;;6.67;1.00;;;;;;;13.52;51.98;101364.89;1802777;78;21063;-54
2021/10/06 09:33:57;;;;;;;4.53;1.17;;;;;;;13.56;52.35;101366.53;1808682;77;20934;-55
2021/10/06 09:36:35;;;;;;;2.08;1.10;;;;;;;13.61;52.30;101361.83;1808477;78;21077;-54
2021/10/06 09:39:05;;;;;;;7.25;1.30;;;;;;;13.67;51.85;101361.63;1806510;77;21048;-55
2021/10/06 09:41:43;;;;;;;4.70;1.10;;;;;;;13.74;51.19;101367.70;1807593;77;20933;-56
2021/10/06 09:44:20;;;;;;;4.47;1.10;;;;;;;13.83;50.65;101366.02;1804127;78;21060;-55
2021/10/06 09:46:58;;;;;;;1.12;0.90;;;;;;;13.91;50.51;101362.56;1803165;77;21453;-55
2021/10/06 09:49:27;;;;;;;1.05;0.80;;;;;;;13.98;50.63;101354.63;1803830;78;21211;-56
2021/10/06 09:52:16;;;;;;;5.12;0.62;;;;;;;14.06;49.53;101357.94;1805333;77;21060;-57
2021/10/06 09:54:54;;;;;;;3.10;0.70;;;;;;;14.11;46.79;101351.90;1805305;77;21072;-55
2021/10/06 09:57:37;;;;;;;2.72;0.80;;;;;;;14.13;46.88;101338.27;1807131;78;21085;-57
2021/10/06 10:00:10;;;;;;;7.35;1.00;;;;;;;14.19;47.00;101348.89;1806357;78;20941;-56
2021/10/06 10:02:40;;;;;;;5.55;0.80;;;;;;;14.23;46.86;101357.30;1803553;77;21080;-55
2021/10/06 10:05:07;;;;;;;3.20;0.70;;;;;;;14.22;45.50;101353.70;1806272;77;21027;-55
2021/10/06 10:07:34;;;;;;;1.22;0.70;;;;;;;14.20;44.75;101363.73;1810547;77;20878;-56
2021/10/06 10:10:01;;;;;;;2.87;0.62;;;;;;;14.16;44.40;101355.30;1806948;77;20941;-57
2021/10/06 10:12:28;;;;;;;2.17;0.70;;;;;;;14.18;44.62;101359.31;1807906;77;20945;-56
2021/10/06 10:14:54;;;;;;;5.45;0.70;;;;;;;14.19;45.39;101367.38;1806602;77;21121;-56
2021/10/06 10:17:21;;;;;;;2.67;0.70;;;;;;;14.21;45.85;101365.48;1807185;77;20938;-56
2021/10/06 10:20:12;;;;;;;2.10;0.90;;;;;;;14.20;45.25;101372.33;1807981;78;20878;-56
2021/10/06 10:22:42;;;;;;;3.52;0.70;;;;;;;14.17;45.04;101376.50;1807415;78;20898;-55
2021/10/06 10:25:26;;;;;;;1.60;1.07;;;;;;;14.09;44.46;101371.84;1807381;78;20910;-55
2021/10/06 10:30:30;;;;;;;2.13;0.70;;;;;;;14.05;45.46;101372.87;1837336;75;23622;-56
2021/10/06 10:33:51;;;;;;;2.47;0.70;;;;;;;14.05;45.13;101364.28;1791516;77;23623;-55
2021/10/06 10:36:37;;;;;;;2.30;0.50;;;;;;;14.02;45.48;101376.60;1769088;79;20883;-56
2021/10/06 10:39:06;;;;;;;1.30;0.80;;;;;;;14.03;44.27;101369.75;1766591;78;21786;-55
2021/10/06 10:41:46;;;;;;;2.60;0.70;;;;;;;14.03;43.15;101367.55;1769626;79;20914;-56
2021/10/06 10:44:12;;;;;;;1.15;0.70;;;;;;;13.98;41.85;101366.34;1764990;79;20999;-56
2021/10/06 10:46:59;;;;;;;3.83;0.80;;;;;;;13.98;41.85;101366.34;1763168;79;21684;-57
2021/10/06 10:49:45;;;;;;;0.72;0.60;;;;;;;14.00;41.21;101361.77;1763332;79;21025;-55
2021/10/06 10:52:12;;;;;;;0.87;0.70;;;;;;;13.99;41.91;101361.34;1763622;79;22389;-55
2021/10/06 10:54:40;;;;;;;5.53;0.60;;;;;;;13.97;41.74;101363.22;1763030;79;21045;-56
2021/10/06 10:57:21;;;;;;;2.55;0.50;;;;;;;13.94;40.78;101360.64;1764163;79;21112;-56
2021/10/06 10:59:50;;;;;;;1.90;0.60;;;;;;;13.93;39.96;101365.64;1769483;79;21391;-56
2021/10/06 11:02:20;;;;;;;2.55;0.53;;;;;;;13.88;40.54;101369.44;1766119;80;21120;-55
2021/10/06 11:05:00;;;;;;;4.03;0.50;;;;;;;13.85;40.89;101364.16;1767932;79;21127;-56
2021/10/06 11:07:27;;;;;;;4.95;0.60;;;;;;;13.82;41.06;101355.66;1766081;79;21564;-57
2021/10/06 11:10:06;;;;;;;0.80;0.57;;;;;;;13.82;41.17;101351.60;1764091;79;21698;-54
2021/10/06 11:12:34;;;;;;;4.35;0.50;;;;;;;13.84;41.39;101340.73;1739337;79;22516;-55
2021/10/06 11:15:21;;;;;;;1.98;0.50;;;;;;;13.86;40.82;101345.63;1766159;79;21362;-55
2021/10/06 11:18:07;;;;;;;2.08;0.50;;;;;;;13.87;40.58;101341.48;1767740;79;21715;-56
2021/10/06 11:20:51;;;;;;;3.12;0.50;;;;;;;13.87;40.66;101337.89;1765514;79;21127;-57
2021/10/06 11:23:39;;;;;;;1.62;0.60;;;;;;;13.88;41.10;101349.13;1764162;79;21072;-57
2021/10/06 11:26:21;;;;;;;3.62;0.60;;;;;;;13.89;41.21;101352.25;1762305;79;21069;-56
2021/10/06 11:28:51;;;;;;;1.77;0.50;;;;;;;13.96;42.17;101351.09;1765155;79;21156;-57
2021/10/06 11:31:27;;;;;;;1.35;0.57;;;;;;;13.96;42.17;101351.09;1764586;79;22649;-55
2021/10/06 11:33:53;;;;;;;10.93;0.80;;;;;;;14.01;41.93;101352.70;1734087;79;21801;-57
2021/10/06 11:36:25;;;;;;;1.65;0.70;;;;;;;14.10;42.46;101338.41;1732422;79;21050;-57